sensor_id;sensor_type;location;lat;lon;timestamp;temperature;humidity
18229;DHT22;9239;50.932;3.142;2023-07-08T00:00:44;21.80;99.90
18229;DHT22;9239;50.932;3.142;2023-07-08T00:03:13;21.70;99.90
18229;DHT22;9239;50.932;3.142;2023-07-08T00:05:40;21.70;99.90
18229;DHT22;9239;50.932;3.142;2023-07-08T00:08:09;21.60;99.90
18229;DHT22;9239;50.932;3.142;2023-07-08T00:10:39;21.50;99.90
18229;DHT22;9239;50.932;3.142;2023-07-08T00:13:08;21.50;99.90
18229;DHT22;9239;50.932;3.142;2023-07-08T00:15:36;21.50;99.90
18229;DHT22;9239;50.932;3.142;2023-07-08T00:18:10;21.50;99.90
18229;DHT22;9239;50.932;3.142;2023-07-08T00:20:39;21.50;99.90
18229;DHT22;9239;50.932;3.142;2023-07-08T00:23:08;21.50;99.90
18229;DHT22;9239;50.932;3.142;2023-07-08T00:25:35;21.50;99.90
18229;DHT22;9239;50.932;3.142;2023-07-08T00:28:07;21.50;99.90
18229;DHT22;9239;50.932;3.142;2023-07-08T00:30:34;21.40;99.90
18229;DHT22;9239;50.932;3.142;2023-07-08T00:33:01;21.40;99.90
18229;DHT22;9239;50.932;3.142;2023-07-08T00:35:30;21.40;99.90
18229;DHT22;9239;50.932;3.142;2023-07-08T00:37:58;21.30;99.90
18229;DHT22;9239;50.932;3.142;2023-07-08T00:40:29;21.30;99.90
18229;DHT22;9239;50.932;3.142;2023-07-08T00:42:58;21.20;99.90
18229;DHT22;9239;50.932;3.142;2023-07-08T00:45:40;21.30;99.90
18229;DHT22;9239;50.932;3.142;2023-07-08T00:48:18;21.30;99.90
18229;DHT22;9239;50.932;3.142;2023-07-08T00:50:46;21.30;99.90
18229;DHT22;9239;50.932;3.142;2023-07-08T00:53:22;21.20;99.90
18229;DHT22;9239;50.932;3.142;2023-07-08T00:55:50;21.20;99.90
18229;DHT22;9239;50.932;3.142;2023-07-08T00:58:19;21.20;99.90
18229;DHT22;9239;50.932;3.142;2023-07-08T01:00:49;21.20;99.90
18229;DHT22;9239;50.932;3.142;2023-07-08T01:03:19;21.20;99.90
18229;DHT22;9239;50.932;3.142;2023-07-08T01:05:47;21.20;99.90
18229;DHT22;9239;50.932;3.142;2023-07-08T01:08:14;21.10;99.90
18229;DHT22;9239;50.932;3.142;2023-07-08T01:10:46;21.10;99.90
18229;DHT22;9239;50.932;3.142;2023-07-08T01:13:14;21.10;99.90
18229;DHT22;9239;50.932;3.142;2023-07-08T01:15:44;21.10;99.90
18229;DHT22;9239;50.932;3.142;2023-07-08T01:18:16;21.00;99.90
18229;DHT22;9239;50.932;3.142;2023-07-08T01:20:47;21.00;99.90
18229;DHT22;9239;50.932;3.142;2023-07-08T01:23:16;21.00;99.90
18229;DHT22;9239;50.932;3.142;2023-07-08T01:25:44;21.00;99.90
18229;DHT22;9239;50.932;3.142;2023-07-08T01:28:12;20.90;99.90
18229;DHT22;9239;50.932;3.142;2023-07-08T01:30:41;20.90;99.90
18229;DHT22;9239;50.932;3.142;2023-07-08T01:33:15;20.80;99.90
18229;DHT22;9239;50.932;3.142;2023-07-08T01:35:44;20.80;99.90
18229;DHT22;9239;50.932;3.142;2023-07-08T01:38:15;20.80;99.90
18229;DHT22;9239;50.932;3.142;2023-07-08T01:40:51;20.70;99.90
18229;DHT22;9239;50.932;3.142;2023-07-08T01:43:18;20.70;99.90
18229;DHT22;9239;50.932;3.142;2023-07-08T01:45:46;20.70;99.90
18229;DHT22;9239;50.932;3.142;2023-07-08T01:48:15;20.60;99.90
18229;DHT22;9239;50.932;3.142;2023-07-08T01:50:47;20.60;99.90
18229;DHT22;9239;50.932;3.142;2023-07-08T01:53:20;20.60;99.90
18229;DHT22;9239;50.932;3.142;2023-07-08T01:55:47;20.50;99.90
18229;DHT22;9239;50.932;3.142;2023-07-08T01:58:15;20.50;99.90
18229;DHT22;9239;50.932;3.142;2023-07-08T02:00:41;20.50;99.90
18229;DHT22;9239;50.932;3.142;2023-07-08T02:03:08;20.40;99.90
18229;DHT22;9239;50.932;3.142;2023-07-08T02:05:36;20.40;99.90
18229;DHT22;9239;50.932;3.142;2023-07-08T02:08:03;20.50;99.90
18229;DHT22;9239;50.932;3.142;2023-07-08T02:10:32;20.40;99.90
18229;DHT22;9239;50.932;3.142;2023-07-08T02:12:59;20.40;99.90
18229;DHT22;9239;50.932;3.142;2023-07-08T02:15:26;20.40;99.90
18229;DHT22;9239;50.932;3.142;2023-07-08T02:17:53;20.40;99.90
18229;DHT22;9239;50.932;3.142;2023-07-08T02:20:20;20.30;99.90
18229;DHT22;9239;50.932;3.142;2023-07-08T02:22:47;20.30;99.90
18229;DHT22;9239;50.932;3.142;2023-07-08T02:25:14;20.30;99.90
18229;DHT22;9239;50.932;3.142;2023-07-08T02:27:43;20.20;99.90
18229;DHT22;9239;50.932;3.142;2023-07-08T02:30:10;20.20;99.90
18229;DHT22;9239;50.932;3.142;2023-07-08T02:32:37;20.10;99.90
18229;DHT22;9239;50.932;3.142;2023-07-08T02:35:05;20.10;99.90
18229;DHT22;9239;50.932;3.142;2023-07-08T02:37:33;20.00;99.90
18229;DHT22;9239;50.932;3.142;2023-07-08T02:40:00;20.00;99.90
18229;DHT22;9239;50.932;3.142;2023-07-08T02:42:26;20.00;99.90
18229;DHT22;9239;50.932;3.142;2023-07-08T02:44:55;19.90;99.90
18229;DHT22;9239;50.932;3.142;2023-07-08T02:47:22;19.90;99.90
18229;DHT22;9239;50.932;3.142;2023-07-08T02:49:49;19.90;99.90
18229;DHT22;9239;50.932;3.142;2023-07-08T02:52:16;19.90;99.90
18229;DHT22;9239;50.932;3.142;2023-07-08T02:54:43;19.90;99.90
18229;DHT22;9239;50.932;3.142;2023-07-08T02:57:09;19.80;99.90
18229;DHT22;9239;50.932;3.142;2023-07-08T02:59:36;19.80;99.90
18229;DHT22;9239;50.932;3.142;2023-07-08T03:02:05;19.70;99.90
18229;DHT22;9239;50.932;3.142;2023-07-08T03:04:32;19.70;99.90
18229;DHT22;9239;50.932;3.142;2023-07-08T03:07:04;19.70;99.90
18229;DHT22;9239;50.932;3.142;2023-07-08T03:09:31;19.70;99.90
18229;DHT22;9239;50.932;3.142;2023-07-08T03:11:58;19.70;99.90
18229;DHT22;9239;50.932;3.142;2023-07-08T03:14:26;19.60;99.90
18229;DHT22;9239;50.932;3.142;2023-07-08T03:16:53;19.50;99.90
18229;DHT22;9239;50.932;3.142;2023-07-08T03:19:21;19.50;99.90
18229;DHT22;9239;50.932;3.142;2023-07-08T03:21:48;19.50;99.90
18229;DHT22;9239;50.932;3.142;2023-07-08T03:24:15;19.50;99.90
18229;DHT22;9239;50.932;3.142;2023-07-08T03:26:44;19.50;99.90
18229;DHT22;9239;50.932;3.142;2023-07-08T03:29:13;19.50;99.90
18229;DHT22;9239;50.932;3.142;2023-07-08T03:31:40;19.50;99.90
18229;DHT22;9239;50.932;3.142;2023-07-08T03:34:09;19.50;99.90
18229;DHT22;9239;50.932;3.142;2023-07-08T03:36:42;19.50;99.90
18229;DHT22;9239;50.932;3.142;2023-07-08T03:39:14;19.50;99.90
18229;DHT22;9239;50.932;3.142;2023-07-08T03:41:42;19.50;99.90
18229;DHT22;9239;50.932;3.142;2023-07-08T03:44:08;19.50;99.90
18229;DHT22;9239;50.932;3.142;2023-07-08T03:46:35;19.40;99.90
18229;DHT22;9239;50.932;3.142;2023-07-08T03:49:02;19.40;99.90
18229;DHT22;9239;50.932;3.142;2023-07-08T03:51:32;19.40;99.90
18229;DHT22;9239;50.932;3.142;2023-07-08T03:54:01;19.30;99.90
18229;DHT22;9239;50.932;3.142;2023-07-08T03:56:28;19.40;99.90
18229;DHT22;9239;50.932;3.142;2023-07-08T03:58:55;19.40;99.90
18229;DHT22;9239;50.932;3.142;2023-07-08T04:01:24;19.40;99.90
18229;DHT22;9239;50.932;3.142;2023-07-08T04:03:52;19.40;99.90
18229;DHT22;9239;50.932;3.142;2023-07-08T04:06:19;19.30;99.90
18229;DHT22;9239;50.932;3.142;2023-07-08T04:08:47;19.30;99.90
18229;DHT22;9239;50.932;3.142;2023-07-08T04:11:17;19.30;99.90
18229;DHT22;9239;50.932;3.142;2023-07-08T04:13:45;19.30;99.90
18229;DHT22;9239;50.932;3.142;2023-07-08T04:16:17;19.30;99.90
18229;DHT22;9239;50.932;3.142;2023-07-08T04:18:44;19.30;99.90
18229;DHT22;9239;50.932;3.142;2023-07-08T04:21:11;19.30;99.90
18229;DHT22;9239;50.932;3.142;2023-07-08T04:23:38;19.30;99.90
18229;DHT22;9239;50.932;3.142;2023-07-08T04:26:05;19.30;99.90
18229;DHT22;9239;50.932;3.142;2023-07-08T04:28:33;19.30;99.90
18229;DHT22;9239;50.932;3.142;2023-07-08T04:31:00;19.30;99.90
18229;DHT22;9239;50.932;3.142;2023-07-08T04:33:27;19.30;99.90
18229;DHT22;9239;50.932;3.142;2023-07-08T04:35:54;19.30;99.90
18229;DHT22;9239;50.932;3.142;2023-07-08T04:38:26;19.40;99.90
18229;DHT22;9239;50.932;3.142;2023-07-08T04:40:54;19.40;99.90
18229;DHT22;9239;50.932;3.142;2023-07-08T04:43:22;19.40;99.90
18229;DHT22;9239;50.932;3.142;2023-07-08T04:45:57;19.40;99.90
18229;DHT22;9239;50.932;3.142;2023-07-08T04:48:24;19.40;99.90
18229;DHT22;9239;50.932;3.142;2023-07-08T04:50:52;19.50;99.90
18229;DHT22;9239;50.932;3.142;2023-07-08T04:53:19;19.50;99.90
18229;DHT22;9239;50.932;3.142;2023-07-08T04:55:49;19.60;99.90
18229;DHT22;9239;50.932;3.142;2023-07-08T04:58:16;19.60;99.90
18229;DHT22;9239;50.932;3.142;2023-07-08T05:00:44;19.60;99.90
18229;DHT22;9239;50.932;3.142;2023-07-08T05:03:12;19.70;99.90
18229;DHT22;9239;50.932;3.142;2023-07-08T05:05:39;19.80;99.90
18229;DHT22;9239;50.932;3.142;2023-07-08T05:08:07;19.90;99.90
18229;DHT22;9239;50.932;3.142;2023-07-08T05:10:34;20.10;99.90
18229;DHT22;9239;50.932;3.142;2023-07-08T05:13:01;20.30;99.90
18229;DHT22;9239;50.932;3.142;2023-07-08T05:15:29;20.40;99.90
18229;DHT22;9239;50.932;3.142;2023-07-08T05:17:59;20.50;99.90
18229;DHT22;9239;50.932;3.142;2023-07-08T05:20:27;20.70;99.90
18229;DHT22;9239;50.932;3.142;2023-07-08T05:22:58;20.80;99.90
18229;DHT22;9239;50.932;3.142;2023-07-08T05:25:25;21.30;99.90
18229;DHT22;9239;50.932;3.142;2023-07-08T05:27:53;21.60;99.90
18229;DHT22;9239;50.932;3.142;2023-07-08T05:30:20;21.70;99.90
18229;DHT22;9239;50.932;3.142;2023-07-08T05:32:47;21.60;99.90
18229;DHT22;9239;50.932;3.142;2023-07-08T05:35:14;21.50;99.90
18229;DHT22;9239;50.932;3.142;2023-07-08T05:37:42;21.60;99.90
18229;DHT22;9239;50.932;3.142;2023-07-08T05:40:12;21.60;99.90
18229;DHT22;9239;50.932;3.142;2023-07-08T05:42:40;21.70;99.90
18229;DHT22;9239;50.932;3.142;2023-07-08T05:45:07;21.70;99.90
18229;DHT22;9239;50.932;3.142;2023-07-08T05:47:35;21.90;99.90
18229;DHT22;9239;50.932;3.142;2023-07-08T05:50:03;22.00;99.90
18229;DHT22;9239;50.932;3.142;2023-07-08T05:52:30;22.10;99.90
18229;DHT22;9239;50.932;3.142;2023-07-08T05:54:58;22.20;99.90
18229;DHT22;9239;50.932;3.142;2023-07-08T05:57:25;22.30;99.90
18229;DHT22;9239;50.932;3.142;2023-07-08T05:59:52;22.40;99.90
18229;DHT22;9239;50.932;3.142;2023-07-08T06:02:19;22.50;99.90
18229;DHT22;9239;50.932;3.142;2023-07-08T06:04:48;22.50;99.90
18229;DHT22;9239;50.932;3.142;2023-07-08T06:07:15;22.60;99.90
18229;DHT22;9239;50.932;3.142;2023-07-08T06:09:42;22.80;99.90
18229;DHT22;9239;50.932;3.142;2023-07-08T06:12:11;22.90;99.90
18229;DHT22;9239;50.932;3.142;2023-07-08T06:14:38;23.00;99.90
18229;DHT22;9239;50.932;3.142;2023-07-08T06:17:05;23.10;99.90
18229;DHT22;9239;50.932;3.142;2023-07-08T06:19:32;23.20;99.90
18229;DHT22;9239;50.932;3.142;2023-07-08T06:21:59;23.20;99.90
18229;DHT22;9239;50.932;3.142;2023-07-08T06:24:26;23.30;99.90
18229;DHT22;9239;50.932;3.142;2023-07-08T06:26:53;23.40;99.90
18229;DHT22;9239;50.932;3.142;2023-07-08T06:29:23;23.50;99.90
18229;DHT22;9239;50.932;3.142;2023-07-08T06:31:50;23.60;99.90
18229;DHT22;9239;50.932;3.142;2023-07-08T06:34:18;23.70;99.90
18229;DHT22;9239;50.932;3.142;2023-07-08T06:36:48;23.90;99.90
18229;DHT22;9239;50.932;3.142;2023-07-08T06:39:15;23.90;99.90
18229;DHT22;9239;50.932;3.142;2023-07-08T06:41:42;23.80;99.90
18229;DHT22;9239;50.932;3.142;2023-07-08T06:44:09;23.80;99.90
18229;DHT22;9239;50.932;3.142;2023-07-08T06:46:37;23.80;99.90
18229;DHT22;9239;50.932;3.142;2023-07-08T06:49:04;23.70;99.90
18229;DHT22;9239;50.932;3.142;2023-07-08T06:51:34;23.70;99.90
18229;DHT22;9239;50.932;3.142;2023-07-08T06:54:01;23.70;99.90
18229;DHT22;9239;50.932;3.142;2023-07-08T06:56:30;23.70;99.90
18229;DHT22;9239;50.932;3.142;2023-07-08T06:58:57;23.80;99.90
18229;DHT22;9239;50.932;3.142;2023-07-08T07:01:24;23.90;99.90
18229;DHT22;9239;50.932;3.142;2023-07-08T07:03:52;24.00;99.90
18229;DHT22;9239;50.932;3.142;2023-07-08T07:06:19;24.20;99.90
18229;DHT22;9239;50.932;3.142;2023-07-08T07:08:46;24.40;99.90
18229;DHT22;9239;50.932;3.142;2023-07-08T07:11:14;24.50;99.90
18229;DHT22;9239;50.932;3.142;2023-07-08T07:13:41;24.60;99.90
18229;DHT22;9239;50.932;3.142;2023-07-08T07:16:08;24.80;99.90
18229;DHT22;9239;50.932;3.142;2023-07-08T07:18:35;24.80;99.90
18229;DHT22;9239;50.932;3.142;2023-07-08T07:21:03;25.00;99.90
18229;DHT22;9239;50.932;3.142;2023-07-08T07:23:30;25.10;99.90
18229;DHT22;9239;50.932;3.142;2023-07-08T07:25:57;25.30;99.90
18229;DHT22;9239;50.932;3.142;2023-07-08T07:28:24;25.30;99.90
18229;DHT22;9239;50.932;3.142;2023-07-08T07:30:56;25.40;99.90
18229;DHT22;9239;50.932;3.142;2023-07-08T07:33:23;25.80;99.90
18229;DHT22;9239;50.932;3.142;2023-07-08T07:35:50;26.40;99.90
18229;DHT22;9239;50.932;3.142;2023-07-08T07:38:18;27.10;99.90
18229;DHT22;9239;50.932;3.142;2023-07-08T07:40:46;27.20;99.90
18229;DHT22;9239;50.932;3.142;2023-07-08T07:43:13;27.30;99.90
18229;DHT22;9239;50.932;3.142;2023-07-08T07:45:40;27.30;99.90
18229;DHT22;9239;50.932;3.142;2023-07-08T07:48:07;27.20;99.90
18229;DHT22;9239;50.932;3.142;2023-07-08T07:50:34;26.90;99.90
18229;DHT22;9239;50.932;3.142;2023-07-08T07:53:01;26.80;99.90
18229;DHT22;9239;50.932;3.142;2023-07-08T07:55:29;26.70;99.90
18229;DHT22;9239;50.932;3.142;2023-07-08T07:57:56;26.60;99.90
18229;DHT22;9239;50.932;3.142;2023-07-08T08:00:23;26.60;99.90
18229;DHT22;9239;50.932;3.142;2023-07-08T08:02:50;26.60;99.90
18229;DHT22;9239;50.932;3.142;2023-07-08T08:05:17;26.70;99.90
18229;DHT22;9239;50.932;3.142;2023-07-08T08:07:44;26.80;99.90
18229;DHT22;9239;50.932;3.142;2023-07-08T08:10:13;26.90;99.90
18229;DHT22;9239;50.932;3.142;2023-07-08T08:12:42;26.90;99.90
18229;DHT22;9239;50.932;3.142;2023-07-08T08:15:10;27.00;99.90
18229;DHT22;9239;50.932;3.142;2023-07-08T08:17:37;27.00;99.90
18229;DHT22;9239;50.932;3.142;2023-07-08T08:20:05;27.00;99.90
18229;DHT22;9239;50.932;3.142;2023-07-08T08:22:32;27.00;99.90
18229;DHT22;9239;50.932;3.142;2023-07-08T08:24:59;27.10;99.90
18229;DHT22;9239;50.932;3.142;2023-07-08T08:27:27;27.10;99.90
18229;DHT22;9239;50.932;3.142;2023-07-08T08:29:55;27.20;99.90
18229;DHT22;9239;50.932;3.142;2023-07-08T08:32:22;27.30;99.90
18229;DHT22;9239;50.932;3.142;2023-07-08T08:34:49;27.30;99.90
18229;DHT22;9239;50.932;3.142;2023-07-08T08:37:16;27.40;99.90
18229;DHT22;9239;50.932;3.142;2023-07-08T08:39:43;27.50;99.90
18229;DHT22;9239;50.932;3.142;2023-07-08T08:42:16;27.60;99.90
18229;DHT22;9239;50.932;3.142;2023-07-08T08:44:46;27.70;99.90
18229;DHT22;9239;50.932;3.142;2023-07-08T08:47:24;27.80;99.90
18229;DHT22;9239;50.932;3.142;2023-07-08T08:49:56;27.80;99.90
18229;DHT22;9239;50.932;3.142;2023-07-08T08:52:25;27.80;99.90
18229;DHT22;9239;50.932;3.142;2023-07-08T08:54:52;27.80;99.90
18229;DHT22;9239;50.932;3.142;2023-07-08T08:57:34;27.80;99.90
18229;DHT22;9239;50.932;3.142;2023-07-08T09:00:04;27.80;99.90
18229;DHT22;9239;50.932;3.142;2023-07-08T09:02:36;27.80;99.90
18229;DHT22;9239;50.932;3.142;2023-07-08T09:05:06;27.80;99.90
18229;DHT22;9239;50.932;3.142;2023-07-08T09:07:39;27.80;99.90
18229;DHT22;9239;50.932;3.142;2023-07-08T09:10:14;27.80;99.90
18229;DHT22;9239;50.932;3.142;2023-07-08T09:12:42;27.90;99.90
18229;DHT22;9239;50.932;3.142;2023-07-08T09:15:13;28.10;99.90
18229;DHT22;9239;50.932;3.142;2023-07-08T09:17:42;28.10;99.90
18229;DHT22;9239;50.932;3.142;2023-07-08T09:20:20;28.20;99.90
18229;DHT22;9239;50.932;3.142;2023-07-08T09:22:51;28.30;99.90
18229;DHT22;9239;50.932;3.142;2023-07-08T09:25:25;28.40;99.90
18229;DHT22;9239;50.932;3.142;2023-07-08T09:27:53;28.50;99.90
18229;DHT22;9239;50.932;3.142;2023-07-08T09:30:22;28.60;99.90
18229;DHT22;9239;50.932;3.142;2023-07-08T09:32:51;28.60;99.90
18229;DHT22;9239;50.932;3.142;2023-07-08T09:35:21;28.60;99.90
18229;DHT22;9239;50.932;3.142;2023-07-08T09:37:49;28.70;99.90
18229;DHT22;9239;50.932;3.142;2023-07-08T09:40:18;28.80;99.90
18229;DHT22;9239;50.932;3.142;2023-07-08T09:42:49;28.80;99.90
18229;DHT22;9239;50.932;3.142;2023-07-08T09:45:19;28.90;99.90
18229;DHT22;9239;50.932;3.142;2023-07-08T09:47:47;28.90;99.90
18229;DHT22;9239;50.932;3.142;2023-07-08T09:50:22;28.90;99.90
18229;DHT22;9239;50.932;3.142;2023-07-08T09:52:51;28.90;99.90
18229;DHT22;9239;50.932;3.142;2023-07-08T09:55:19;29.00;99.90
18229;DHT22;9239;50.932;3.142;2023-07-08T09:57:49;29.10;99.90
18229;DHT22;9239;50.932;3.142;2023-07-08T10:00:19;29.20;99.90
18229;DHT22;9239;50.932;3.142;2023-07-08T10:02:54;29.30;99.90
18229;DHT22;9239;50.932;3.142;2023-07-08T10:05:25;29.40;99.90
18229;DHT22;9239;50.932;3.142;2023-07-08T10:07:56;29.40;99.90
18229;DHT22;9239;50.932;3.142;2023-07-08T10:10:28;29.40;99.90
18229;DHT22;9239;50.932;3.142;2023-07-08T10:12:58;29.50;99.90
18229;DHT22;9239;50.932;3.142;2023-07-08T10:15:31;29.60;99.90
18229;DHT22;9239;50.932;3.142;2023-07-08T10:18:00;29.60;99.90
18229;DHT22;9239;50.932;3.142;2023-07-08T10:20:37;29.70;99.90
18229;DHT22;9239;50.932;3.142;2023-07-08T10:23:14;29.80;99.90
18229;DHT22;9239;50.932;3.142;2023-07-08T10:25:57;30.00;99.90
18229;DHT22;9239;50.932;3.142;2023-07-08T10:28:31;30.20;99.90
18229;DHT22;9239;50.932;3.142;2023-07-08T10:31:10;30.20;99.90
18229;DHT22;9239;50.932;3.142;2023-07-08T10:36:43;30.40;99.90
18229;DHT22;9239;50.932;3.142;2023-07-08T10:39:26;30.40;99.90
18229;DHT22;9239;50.932;3.142;2023-07-08T10:42:02;30.50;99.90
18229;DHT22;9239;50.932;3.142;2023-07-08T10:44:35;30.50;99.90
18229;DHT22;9239;50.932;3.142;2023-07-08T10:47:13;30.40;99.90
18229;DHT22;9239;50.932;3.142;2023-07-08T10:49:51;30.50;99.90
18229;DHT22;9239;50.932;3.142;2023-07-08T10:52:36;30.70;99.90
18229;DHT22;9239;50.932;3.142;2023-07-08T10:55:20;30.90;99.90
18229;DHT22;9239;50.932;3.142;2023-07-08T10:58:08;30.90;99.90
18229;DHT22;9239;50.932;3.142;2023-07-08T11:00:48;30.90;99.90
18229;DHT22;9239;50.932;3.142;2023-07-08T11:03:35;31.00;99.90
18229;DHT22;9239;50.932;3.142;2023-07-08T11:06:10;31.10;99.90
18229;DHT22;9239;50.932;3.142;2023-07-08T11:08:42;31.20;99.90
18229;DHT22;9239;50.932;3.142;2023-07-08T11:11:18;31.40;99.90
18229;DHT22;9239;50.932;3.142;2023-07-08T11:13:53;31.40;99.90
18229;DHT22;9239;50.932;3.142;2023-07-08T11:16:25;31.50;99.90
18229;DHT22;9239;50.932;3.142;2023-07-08T11:18:56;31.30;99.90
18229;DHT22;9239;50.932;3.142;2023-07-08T11:21:31;31.30;99.90
18229;DHT22;9239;50.932;3.142;2023-07-08T11:24:04;31.20;99.90
18229;DHT22;9239;50.932;3.142;2023-07-08T11:26:36;31.10;99.90
18229;DHT22;9239;50.932;3.142;2023-07-08T11:29:15;31.10;99.90
18229;DHT22;9239;50.932;3.142;2023-07-08T11:31:44;31.00;99.90
18229;DHT22;9239;50.932;3.142;2023-07-08T11:34:13;31.10;99.90
18229;DHT22;9239;50.932;3.142;2023-07-08T11:36:41;31.10;99.90
18229;DHT22;9239;50.932;3.142;2023-07-08T11:39:28;31.20;99.90
18229;DHT22;9239;50.932;3.142;2023-07-08T11:42:19;31.20;99.90
18229;DHT22;9239;50.932;3.142;2023-07-08T11:44:51;31.30;99.90
18229;DHT22;9239;50.932;3.142;2023-07-08T11:47:25;31.30;99.90
18229;DHT22;9239;50.932;3.142;2023-07-08T11:49:53;31.30;99.90
18229;DHT22;9239;50.932;3.142;2023-07-08T11:52:22;31.40;99.90
18229;DHT22;9239;50.932;3.142;2023-07-08T11:54:59;31.30;99.90
18229;DHT22;9239;50.932;3.142;2023-07-08T11:57:30;31.30;99.90
18229;DHT22;9239;50.932;3.142;2023-07-08T12:00:14;31.30;99.90
18229;DHT22;9239;50.932;3.142;2023-07-08T12:02:50;31.20;99.90
18229;DHT22;9239;50.932;3.142;2023-07-08T12:05:17;31.20;99.90
18229;DHT22;9239;50.932;3.142;2023-07-08T12:07:56;31.20;99.90
18229;DHT22;9239;50.932;3.142;2023-07-08T12:10:27;31.20;99.90
18229;DHT22;9239;50.932;3.142;2023-07-08T12:12:54;31.20;99.90
18229;DHT22;9239;50.932;3.142;2023-07-08T12:15:24;31.30;99.90
18229;DHT22;9239;50.932;3.142;2023-07-08T12:17:52;31.30;99.90
18229;DHT22;9239;50.932;3.142;2023-07-08T12:20:22;31.30;99.90
18229;DHT22;9239;50.932;3.142;2023-07-08T12:22:50;31.40;99.90
18229;DHT22;9239;50.932;3.142;2023-07-08T12:25:19;31.40;99.90
18229;DHT22;9239;50.932;3.142;2023-07-08T12:27:48;31.40;99.90
18229;DHT22;9239;50.932;3.142;2023-07-08T12:30:16;31.50;99.90
18229;DHT22;9239;50.932;3.142;2023-07-08T12:32:44;31.50;99.90
18229;DHT22;9239;50.932;3.142;2023-07-08T12:35:21;31.30;99.90
18229;DHT22;9239;50.932;3.142;2023-07-08T12:37:49;31.30;99.90
18229;DHT22;9239;50.932;3.142;2023-07-08T12:40:16;31.20;99.90
18229;DHT22;9239;50.932;3.142;2023-07-08T12:42:44;31.20;99.90
18229;DHT22;9239;50.932;3.142;2023-07-08T12:45:18;31.20;99.90
18229;DHT22;9239;50.932;3.142;2023-07-08T12:47:46;31.30;99.90
18229;DHT22;9239;50.932;3.142;2023-07-08T12:50:13;31.30;99.90
18229;DHT22;9239;50.932;3.142;2023-07-08T12:52:43;31.30;99.90
18229;DHT22;9239;50.932;3.142;2023-07-08T12:55:10;31.30;99.90
18229;DHT22;9239;50.932;3.142;2023-07-08T12:57:38;31.40;99.90
18229;DHT22;9239;50.932;3.142;2023-07-08T13:00:12;31.60;99.90
18229;DHT22;9239;50.932;3.142;2023-07-08T13:02:44;31.60;99.90
18229;DHT22;9239;50.932;3.142;2023-07-08T13:05:12;31.60;99.90
18229;DHT22;9239;50.932;3.142;2023-07-08T13:07:41;31.40;99.90
18229;DHT22;9239;50.932;3.142;2023-07-08T13:10:17;31.60;99.90
18229;DHT22;9239;50.932;3.142;2023-07-08T13:12:45;31.50;99.90
18229;DHT22;9239;50.932;3.142;2023-07-08T13:15:18;31.50;99.90
18229;DHT22;9239;50.932;3.142;2023-07-08T13:17:48;31.50;99.90
18229;DHT22;9239;50.932;3.142;2023-07-08T13:20:16;31.40;99.90
18229;DHT22;9239;50.932;3.142;2023-07-08T13:22:54;31.20;99.90
18229;DHT22;9239;50.932;3.142;2023-07-08T13:25:27;31.00;99.90
18229;DHT22;9239;50.932;3.142;2023-07-08T13:27:56;30.80;99.90
18229;DHT22;9239;50.932;3.142;2023-07-08T13:30:26;30.70;99.90
18229;DHT22;9239;50.932;3.142;2023-07-08T13:32:55;30.60;99.90
18229;DHT22;9239;50.932;3.142;2023-07-08T13:35:24;30.60;99.90
18229;DHT22;9239;50.932;3.142;2023-07-08T13:37:52;30.60;99.90
18229;DHT22;9239;50.932;3.142;2023-07-08T13:40:19;30.60;99.90
18229;DHT22;9239;50.932;3.142;2023-07-08T13:42:48;30.50;99.90
18229;DHT22;9239;50.932;3.142;2023-07-08T13:45:19;30.30;99.90
18229;DHT22;9239;50.932;3.142;2023-07-08T13:48:00;30.20;99.90
18229;DHT22;9239;50.932;3.142;2023-07-08T13:50:35;30.00;99.90
18229;DHT22;9239;50.932;3.142;2023-07-08T13:53:16;29.80;99.90
18229;DHT22;9239;50.932;3.142;2023-07-08T13:55:43;29.80;99.90
18229;DHT22;9239;50.932;3.142;2023-07-08T13:58:15;29.80;99.90
18229;DHT22;9239;50.932;3.142;2023-07-08T14:00:42;29.80;99.90
18229;DHT22;9239;50.932;3.142;2023-07-08T14:03:19;29.80;99.90
18229;DHT22;9239;50.932;3.142;2023-07-08T14:05:47;29.90;99.90
18229;DHT22;9239;50.932;3.142;2023-07-08T14:08:16;29.80;99.90
18229;DHT22;9239;50.932;3.142;2023-07-08T14:10:43;29.80;99.90
18229;DHT22;9239;50.932;3.142;2023-07-08T14:13:11;29.90;99.90
18229;DHT22;9239;50.932;3.142;2023-07-08T14:15:38;30.10;99.90
18229;DHT22;9239;50.932;3.142;2023-07-08T14:18:07;30.20;99.90
18229;DHT22;9239;50.932;3.142;2023-07-08T14:20:36;30.10;99.90
18229;DHT22;9239;50.932;3.142;2023-07-08T14:23:03;30.10;99.90
18229;DHT22;9239;50.932;3.142;2023-07-08T14:25:30;30.00;99.90
18229;DHT22;9239;50.932;3.142;2023-07-08T14:27:57;30.10;99.90
18229;DHT22;9239;50.932;3.142;2023-07-08T14:30:24;30.30;99.90
18229;DHT22;9239;50.932;3.142;2023-07-08T14:32:51;30.20;99.90
18229;DHT22;9239;50.932;3.142;2023-07-08T14:35:21;30.00;99.90
18229;DHT22;9239;50.932;3.142;2023-07-08T14:37:51;29.90;99.90
18229;DHT22;9239;50.932;3.142;2023-07-08T14:40:22;30.10;99.90
18229;DHT22;9239;50.932;3.142;2023-07-08T14:42:54;30.20;99.90
18229;DHT22;9239;50.932;3.142;2023-07-08T14:45:23;30.30;99.90
18229;DHT22;9239;50.932;3.142;2023-07-08T14:47:49;30.40;99.90
18229;DHT22;9239;50.932;3.142;2023-07-08T14:50:16;30.20;99.90
18229;DHT22;9239;50.932;3.142;2023-07-08T14:52:43;30.20;99.90
18229;DHT22;9239;50.932;3.142;2023-07-08T14:55:12;30.20;99.90
18229;DHT22;9239;50.932;3.142;2023-07-08T14:57:44;30.20;99.90
18229;DHT22;9239;50.932;3.142;2023-07-08T15:00:15;30.20;99.90
18229;DHT22;9239;50.932;3.142;2023-07-08T15:02:45;30.20;99.90
18229;DHT22;9239;50.932;3.142;2023-07-08T15:05:18;30.20;99.90
18229;DHT22;9239;50.932;3.142;2023-07-08T15:07:48;30.30;99.90
18229;DHT22;9239;50.932;3.142;2023-07-08T15:10:17;30.20;99.90
18229;DHT22;9239;50.932;3.142;2023-07-08T15:12:45;30.30;99.90
18229;DHT22;9239;50.932;3.142;2023-07-08T15:15:17;30.20;99.90
18229;DHT22;9239;50.932;3.142;2023-07-08T15:17:44;30.20;99.90
18229;DHT22;9239;50.932;3.142;2023-07-08T15:20:13;30.20;99.90
18229;DHT22;9239;50.932;3.142;2023-07-08T15:22:41;30.20;99.90
18229;DHT22;9239;50.932;3.142;2023-07-08T15:25:10;30.00;99.90
18229;DHT22;9239;50.932;3.142;2023-07-08T15:27:39;29.90;99.90
18229;DHT22;9239;50.932;3.142;2023-07-08T15:30:15;29.80;99.90
18229;DHT22;9239;50.932;3.142;2023-07-08T15:32:44;29.90;99.90
18229;DHT22;9239;50.932;3.142;2023-07-08T15:35:16;29.80;99.90
18229;DHT22;9239;50.932;3.142;2023-07-08T15:37:43;29.70;99.90
18229;DHT22;9239;50.932;3.142;2023-07-08T15:40:13;29.50;99.90
18229;DHT22;9239;50.932;3.142;2023-07-08T15:42:42;29.50;99.90
18229;DHT22;9239;50.932;3.142;2023-07-08T15:45:16;29.40;99.90
18229;DHT22;9239;50.932;3.142;2023-07-08T15:47:43;29.50;99.90
18229;DHT22;9239;50.932;3.142;2023-07-08T15:50:12;29.50;99.90
18229;DHT22;9239;50.932;3.142;2023-07-08T15:52:39;29.40;99.90
18229;DHT22;9239;50.932;3.142;2023-07-08T15:55:07;29.20;99.90
18229;DHT22;9239;50.932;3.142;2023-07-08T15:57:38;29.20;99.90
18229;DHT22;9239;50.932;3.142;2023-07-08T16:00:15;29.30;99.90
18229;DHT22;9239;50.932;3.142;2023-07-08T16:02:48;29.50;99.90